Espace membre
Imprimable
Gent, 27/10/2019, BEL - Marathon van Gent
Liste des rapports > Mara - Classement
Recherche: Page: [1] 2
638 Entrées
 
Les réclamations ne sont plus acceptées, les résultats sont considérés comme définitifs.
Catégorie
PosNrNomAgeIOCTempsTkmMoy.RangNomScrLocalité
1.420435MJØS Per Christian Eggen21NOR2:36:593:44 16.131SEH1GENT
2.420408MAES Sven30BEL2:39:233:47 15.882SEH2LOKEREN
3.420849MAHIA Sebastien33BEL2:40:473:49 15.753SEH3NAMUR
4.420558UNTERWEGER Roland34BEL2:43:123:53 15.514SEH4SINT AMANDSBERG
5.420230DE SMET Diebrecht37BEL2:43:293:53 15.491M355ZEVERGEM
6.420761LERNOUT Dries40BEL2:45:443:56 15.281M406GELUWE
7.420458ORISTIL Alexandre41BEL2:47:433:59 15.102M407SINT-GILLIS
8.420834STROLLO Sergio31BEL2:50:254:03 14.865SEH8BEERSEL
9.420002DEDEIN Karel43BEL2:50:284:03 14.853M409GENT
10.420738MISPLON Bert31BEL2:52:414:06 14.666SEH10GENT
11.420051VANCRAEYNEST Pieter34BEL2:52:534:06 14.647SEH11WEVELGEM
12.420822LAMBERT Birger36BEL2:53:194:07 14.612M3512LISSEWEGE
13.420397LESLIE Steven36GBR2:54:064:08 14.543M3513WIRRAL
14.420638VANDEBROUCK Geoffrey35BEL2:55:354:10 14.424M3514GUIGOVEN
15.420026CEENAEME Frank36BEL2:55:574:11 14.395M3515GENT
16.420924VAN DE WIELLE Gert43BEL2:56:224:11 14.364M4016SINT-NIKLAAS
17.420916RUMPHAKWAEN Nid51BEL2:57:064:12 14.301M5017GRIMBERGEN
18.420144CARDON Germer27BEL2:57:094:12 14.298SEH18HAMME
19.420330GEORGE Joren35BEL2:57:154:13 14.286M3519GENT
20.420696WALLAERT Matthias32BEL2:57:284:13 14.279SEH20IZEGEM
21.420541TACK Willem32BEL2:57:574:14 14.2310SEH21KRUISEM
22.420201DE COSTER Maarten40BEL2:58:184:14 14.205M4022GENTBRUGGE
23.420374JACOBS Thomas33BEL2:58:364:14 14.1811SEH23ZWIJNAARDE
24.420013KINDT Jan45BEL2:58:484:15 14.161M4524DEINZE
25.420842DE PROOST Evert32BEL2:59:084:15 14.1312SEH25OPWIJK
26.420195DE CATELLE Benjamin20BEL2:59:204:15 14.1213SEH26OOSTAKKER
27.420615VAN LANDSCHOOT Bart47BEL2:59:214:16 14.122M4527EKE
28.420775DECEUNINCK Dieter Daniel44BEL2:59:264:16 14.116M4028IEPER
29.420918D'HAVÉ Olivier43BEL2:59:294:16 14.117M4029AALTER
30.420839SABBE Karel30BEL2:59:304:16 14.1014SEH30ANZEGEM
31.420492REYNIERS Brecht43BEL3:01:044:18 13.988M4031VEURNE
32.420807SCHAELE Dirk53BEL3:02:404:20 13.862M5032MELLE
33.420237DE VEENE Henri30BEL3:03:254:21 13.8015SEH33GENT
34.420782LAMBERG Olivier53BEL3:03:374:22 13.793M5034GRIMBERGEN
35.420284DESTA GEBREMICHAEL Yeneneh44BEL3:04:044:22 13.759M4035WONDELGEM
36.420787HEYVAERT Matthias27BEL3:05:244:24 13.6616SEH36AFFLIGEM
37.420780DE VOS Fabien Marie-Agnès42BEL3:05:304:24 13.6510M4037WORTEGEM-PETEGEM
38.420684VERMEULEN Bram39BEL3:06:344:26 13.577M3538SLEIDINGE
39.420715ZANCANER Alain49BEL3:06:564:26 13.543M4539MARIAKERKE (GENT)
40.420446NAETS Nick34BEL3:06:594:26 13.5417SEH40ITEGEM
41.420368HUYS James27BEL3:07:054:27 13.5318SEH41DE PINTE
42.420229DE SMET Davy41BEL3:07:054:27 13.5311M4042WICHELEN
43.420232DE SMET Jeroen31BEL3:07:414:27 13.4919SEH43NAZARETH
44.420816IVENS Pieter38BEL3:07:414:27 13.498M3544GENT
45.420344GRAWET Lennert28BEL3:07:464:27 13.4820SEH45GENTBRUGGE
46.420801DEPRAETERE Koen44BEL3:07:554:28 13.4712M4046GELUWE
47.420441MOREIRA Anthony27FRA3:08:124:28 13.4521SEH47TOURCOING
48.420720VAN DAMME Dimitri40BEL3:08:414:29 13.4213M4048LOKEREN
49.420148CERPENTIER Tim23BEL3:09:094:29 13.3922SEH49STEKENE
50.420083BALLEGEER Kurt50BEL3:09:394:30 13.354M5050BEERNEM
51.420774CORNELIS Filip Ivonne51BEL3:09:454:30 13.345M5051SINT-MARTENS-LATEM
52.420297DOOMS Thierry52BEL3:09:454:30 13.346M5052HELKIJN
53.420538SVET Luka26BEL3:10:494:32 13.2723SEH53BRUXELLES
54.420011DELVOY Joeri42BEL3:10:574:32 13.2614M4054ZINGEM
55.420216DE PAEPE Koen47BEL3:11:164:32 13.244M4555KRUISEM
56.420003LAMPENS Jonas38BEL3:11:314:33 13.229M3556GENT
57.420790MAES Serge48BEL3:11:414:33 13.215M4557TURNHOUT
58.420126BRAET Alexis25BEL3:12:184:34 13.1724SEH58VILVORDE
59.420686VERRIJCKT Bart46BEL3:13:114:35 13.116M4559BRECHT
60.420978CHARLET Quentin32FRA3:13:334:36 13.0825SEH60HAZEBROUCK
61.420121BOOTLAND Carl27BEL3:13:384:36 13.0826SEH61LEUVEN
62.420610VAN HOOREBEKE Christian43BEL3:13:394:36 13.0715M4062DESTELBERGEN
63.420732VANSTECHELMAN Pieter32BEL3:13:444:36 13.0727SEH63OOSTENDE
64.420012DICK Steven45BEL3:13:514:36 13.067M4564OUDENAARDE
65.420578VAN DE VYVER Jan41BEL3:14:064:36 13.0416M4065DUFFEL
66.420669VERFAILLIE Emmanuel34BEL3:14:234:37 13.0228SEH66GULLEGE
67.420872JACOBS Kenny35BEL3:14:264:37 13.0210M3567BEERSEL
68.420698WATTEZ Bart38BEL3:14:304:37 13.0211M3568HARELBEKE
69.420400LION Benjamin21BEL3:15:254:38 12.9629SEH69KALMTHOUT
70.420499ROSSAY Geoffrey49BEL3:15:334:39 12.958M4570NEUFVILLES
71.420314FOLLENS Lars25BEL3:15:374:39 12.9430SEH71KONINGSHOOIKT
72.420752VAN DE MOORTELE Eddy57BEL3:15:454:39 12.931M5572GENT
73.420630VAN WELDEN Rik50BEL3:15:484:39 12.937M5073OUDENAARDE
74.420728CIETERS Andy26BEL3:15:524:39 12.9331SEH74LOKEREN
75.420466PEDEMONTE Rafael34BEL3:16:364:40 12.8832SEH75GENT
76.420919DEWAELE Tom49BEL3:16:384:40 12.889M4576OVERIJSE
77.420401LISARRI Josemi53ESP3:16:444:40 12.878M5077PAMPLONA
78.420166COUCKE Pieter26BEL3:17:154:41 12.8433SEH78GENT
79.420353HANSSENS Bart47BEL3:17:204:41 12.8310M4579WEVELGEM
80.420111BINARD Tanguy44BEL3:17:534:42 12.7917M4080ELSENE
81.420875PAUWELS Stijn39BEL3:18:014:42 12.7912M3581SCHELDEWINDEKE
82.420876CODDE Lieven39BEL3:18:024:42 12.7813M3582OOSTERZELE
83.420187DE BOECK Andy39BEL3:18:084:42 12.7814M3583MECHELEN
84.420840VAN WOENSEL Thomas25BEL3:18:344:43 12.7534SEH84HEIST-OP-DEN-BERG
85.420825ANTHONI Jurgen46BEL3:18:434:43 12.7411M4585NIEL
86.420813GOETHALS Anton27BEL3:18:544:43 12.7335SEH86GENT
87.420061SUYS Ekhart47BEL3:19:074:44 12.7212M4587EVERGEM
88.420049DELGADO DE TORRES Xavier44ESP3:19:174:44 12.7018M4088SABADELL
89.420215DE NUTTE Kristof35BEL3:19:554:45 12.6615M3589HELDERGEM
90.420773BOLLENS Chris59BEL3:20:054:45 12.652M5590URSEL
91.420059AERNOUTS Joris38BEL3:20:074:45 12.6516M3591SINT-NIKLAAS
92.420748VAN DE WALLE Rik49BEL3:20:084:45 12.6513M4592AALTER
93.420355HENDRICKX Robin30BEL3:20:134:45 12.6436SEH93RIJKEVORSEL
94.420149CEULEMANS Bart46BEL3:20:184:45 12.6414M4594GENT
95.420985UYTTENDAELE Bram31BEL3:20:214:45 12.6437SEH95EVERGEM
96.420571VAN DE MAELE Anthony38BEL3:20:254:45 12.6317M3596GALMAARDEN
97.420802RONDELEZ Jeroen40BEL3:20:304:46 12.6319M4097BEERST
98.420402LISSENS Piet56BEL3:20:424:46 12.623M5598WAREGEM
99.420659VANOOTEGHEM Jonathan26BEL3:20:434:46 12.6138SEH99GENT
100.420352HAELTERS Stijn36BEL3:21:134:47 12.5818M35100MAARKEDAL
101.420137BUYL Maarten34BEL3:21:404:47 12.5539SEH101HALLE
102.420557TRUYEN Vital42BEL3:21:494:47 12.5420M40102MOLENBEERSEL
103.420523SEYNAEVE Bruce26BEL3:21:534:48 12.5440SEH103IZEGEM
104.420799DE VLIEGHER Koen37BEL3:21:534:48 12.5419M35104MOERBEKE-WAAS
105.420765VAN MACKELENBERGH Gijsbertus50NLD3:21:574:48 12.549M50105SINT-AMANDSBERG
106.420254DECLERCQ Mathieu34BEL3:22:004:48 12.5341SEH106GULLEGEM
107.420037ROGIEST Wouter39BEL3:22:034:48 12.5320M35107GENT
108.420845VAN DEN HEEDE Davy44BEL3:22:054:48 12.5321M40108GENT
109.420829VANDEN BERGHE Tom35BEL3:22:084:48 12.5321M35109ROESELARE
110.420516SCHÖPGES Daniel29BEL3:22:134:48 12.5242SEH111BÜLLINGEN
111.420227DE ROUCK Thomas29BEL3:22:574:49 12.4843SEH112OUDENAARDE
112.420539SWINNEN Bart31BEL3:23:054:49 12.4744SEH113LOMMEL
113.420279DESCHEPPER Arne23BEL3:23:264:50 12.4545SEH114GENT
114.420563VAN BEEK Raf42BEL3:23:334:50 12.4422M40115MECHELEN
115.420424MEERS Andy40BEL3:23:414:50 12.4323M40116WEZEMAAL
116.420285DETURCK Dieter28BEL3:24:044:51 12.4146SEH117OOSTENDE
117.420982LUPPENS Dirk52BEL3:24:104:51 12.4010M50118MERCHTEM
118.420213DE NEEF Nico Ultrakid37BEL3:24:154:51 12.4022M35119GENT
119.420262DELMAIRE Frederik38BEL3:24:364:51 12.3723M35120BRAKEL
120.420576VAN DE VELDE Lode35BEL3:24:474:52 12.3624M35121ZOMERGEM
121.420246DE WULF Peter37BEL3:24:504:52 12.3625M35122ZELZATE
122.420005DEFRUYT Tobit32BEL3:24:594:52 12.3547SEH123SINT-DENIJS-WESTREM
123.420746PIETERS Arnout44BEL3:25:054:52 12.3424M40124SINT-NIKLAAS
124.420238DE VISSCHER Dimitri35BEL3:25:454:53 12.3126M35125APPELTERRE-EICHEM
125.420915MULLER Nathan18BEL3:25:464:53 12.3048SEH126IXELLES
126.420198DE COCK Bart38BEL3:25:484:53 12.3027M35127BORNEM
127.420555TRUWANT Ward25BEL3:25:494:53 12.3049SEH128ROESELARE
128.420276DERYCKERE Dimitri32BEL3:25:494:53 12.3050SEH129ROESELARE
129.420553TRUWANT Karel30BEL3:25:514:53 12.3051SEH130WILRIJK
130.420186DE BLESER Tim39BEL3:25:544:53 12.3028M35131GENT
131.420193DE BRUYNE Pieter33BEL3:25:574:53 12.2952SEH132ASSENEDE
132.420824VERSCHAEVE Bart44BEL3:25:594:53 12.2925M40134LICHTERVELDE
133.420871VAN HULLE Gianni27BEL3:26:024:53 12.2953SEH135GENTBRUGGE
134.420695VYNCKE Thomas28BEL3:26:104:54 12.2854SEH136AARTSELAAR
135.420169COUSSEMENT Sander30BEL3:26:244:54 12.2755SEH137HEULE
136.420009CALLANT Jean-Marc40BEL3:26:264:54 12.2626M40138DE PINTE
137.420339GOEMINNE Tim45BEL3:26:334:54 12.2615M45139ZWIJNAARDE
138.420531SNEL Tim27BEL3:26:354:54 12.2656SEH140KRUISHOUTEM
139.420680VERKYNDERE David32BEL3:26:354:54 12.2657SEH141HARELBEKE
140.420176D´HAENE Matthias30BEL3:26:364:54 12.2558SEH142SINT-ANDRIES
141.420927MINGELS Pieter30BEL3:26:424:54 12.2559SEH143HEUSDEN-ZOLDER
142.420228DE SCHRIJVER David42BEL3:26:474:55 12.2427M40144UITBERGEN
143.420530SMITH Thomas34GBR3:27:134:55 12.2260SEH145BIRMINGHAM
144.420981CARLIER Frederik35BEL3:27:134:55 12.2229M35146BRUSSELS
145.420818URBAN Yann33FRA3:27:454:56 12.1961SEH147CROIX
146.420735PAELINCK Nick33BEL3:27:474:56 12.1962SEH148GENT
147.420832PIERREUX Bart44BEL3:27:494:56 12.1828M40149HALLE
148.420197DE CLOEDT Steve47BEL3:27:544:56 12.1816M45150BREDENE
149.420308EVERTS Arnoud30NLD3:28:004:56 12.1763SEH151ASSEN
150.420601VAN EENAEME Ruben34BEL3:28:104:57 12.1664SEH153WILSELE
151.420268DEMUYNCK Mathias37BEL3:28:124:57 12.1630M35154AFSNEE
152.420054DE NEVE Joris48BEL3:28:154:57 12.1617M45156EEKLO
153.420823GEVAERT Peter48BEL3:28:154:57 12.1618M45157TORHOUT
154.420272DEPOORTERE Yves38BEL3:28:174:57 12.1631M35158ORROIR
155.420071AMELOOT Frederik42BEL3:28:254:57 12.1529M40159VELDEGEM
156.420984DE COSTER Jeroen41BEL3:28:394:57 12.1330M40160BOORTMEERBEEK
157.420361HILLEWAERE Lars28BEL3:28:484:57 12.1365SEH161OOSTDUINKERKE
158.420125BRACKE Roel36BEL3:28:554:58 12.1232M35162WILRIJK
159.420100BERNARD Rudi52BEL3:29:134:58 12.1011M50163BOTHEY
160.420838LOMBAERTS Sven45BEL3:29:144:58 12.1019M45164ZEMST
161.420433MILLWARD Richard48GBR3:29:224:58 12.0920M45165COLCHESTER
162.420837VERMEULEN Jan43BEL3:29:294:58 12.0931M40166BRUSSEL
163.420814VERBEEK Gunter47BEL3:29:344:58 12.0821M45167HOEVENEN
164.420519SEGERS Pieter39BEL3:29:494:59 12.0733M35168BEERSE
165.420416MANNINGER Peter31BEL3:29:504:59 12.0766SEH169BRUSSELS
166.420029DE KEYSER Bruno51BEL3:29:524:59 12.0612M50170GENT
167.420334GJORGJIEVSKI Blagojcho46BEL3:30:485:00 12.0122M45171SINT-LAMBRECHTS-WOLUWE
168.420678VERHELST David36BEL3:31:195:01 11.9834M35173GENT
169.420438MOERENHOUT Pierre48BEL3:31:395:01 11.9623M45174SERSKAMP
170.420167COUCKUYT Christophe36BEL3:31:585:02 11.9435M35175HERDERSEM
171.420599VAN DRIESSCHE Keefe35FRA3:32:135:02 11.9336M35176TOURCOING
172.420976VAN OVERSTRAETEN Kris37BEL3:32:185:02 11.9337M35177NIEUWERKERKEN
173.420614VAN LANCKER Ruben41BEL3:32:225:02 11.9232M40178MALDEGEM
174.420282DESODT Jan56BEL3:32:255:03 11.924M55179WERVIK
175.420734DE PAUW Kevin44BEL3:32:295:03 11.9233M40180BASSEVELDE
176.420140CAEN Kevin26BEL3:32:405:03 11.9167SEH181GENT
177.420313FOLLEN David42BEL3:32:585:03 11.8934M40182GENT
178.420295DISPERSYN Jonas33BEL3:33:125:04 11.8868SEH183LOCHRISTI
179.420120BONHOMME Cédric26BEL3:33:175:04 11.8769SEH184SAINT-VINCENT
180.420753DEBEUF Vincent42BEL3:33:385:04 11.8535M40186GELUWE
181.420337GODERIS Alex30BEL3:34:065:05 11.8370SEH187KORTRIJK
182.420429MESUERE Pieter30BEL3:34:155:05 11.8271SEH1889000 - GENT
183.420623VAN MULDERS Jente23BEL3:34:155:05 11.8272SEH189ASSE
184.420727DECROCK Pedro48BEL3:34:285:05 11.8124M45190WONDELGEM
185.420675VERHAEGHE Filip48BEL3:34:305:06 11.8025M45191ASSEBROEK
186.420044VANDERJEUGHT Maarten39BEL3:34:395:06 11.8038M35192GENT
187.420331GEUNES Arno27BEL3:34:455:06 11.7973SEH193ROTSELAAR
188.420317FREITAS Emmanuel48BEL3:35:275:07 11.7526M45194HOLLEBEKE
189.420828DE COCK Chris52BEL3:35:585:08 11.7213M50196SINT-GENESIUS-RODE
190.420789GHESQUERE DanyBEL3:36:015:08 11.72-197WEVELGEM
191.420118BOIS Pierre-Henri40BEL3:36:075:08 11.7236M40198BLANDAIN
192.420711WILMART Gilles42BEL3:36:315:08 11.6937M40199FORCHIES-LA-MARCHE
193.420004SAERENS Michael35BEL3:36:335:08 11.6939M35200GENT
194.420797HERREGODTS Jan25BEL3:36:355:08 11.6974SEH201GERAARDSBERGEN
195.420294DIERCKENS Jonathan34BEL3:36:375:09 11.6975SEH202LANDEGEM
196.420251DEBROUX Jean-Yves46BEL3:36:455:09 11.6827M45203VORST
197.420925CLAES Jomme27BEL3:36:475:09 11.6876SEH204LEUVEN
198.420589VAN DENDER Roeland40BEL3:36:535:09 11.6738M40205KRUIBEKE
199.420189DE BONT Glenn42BEL3:37:045:09 11.6639M40206GENT
200.420497ROMMENS Casper25BEL3:37:185:09 11.6577SEH207ANTWERPEN
201.420674VERHAEGEN Michiel47BEL3:37:335:10 11.6428M45210ANTWERPEN
202.420396LEROY Rémy26BEL3:37:335:10 11.6478SEH211MOUSCRON
203.420792TOLLENAERE Jonas32BEL3:37:425:10 11.6379SEH213SINT-AMANDSBERG (GENT)
204.420327GEIJSEN Jacques52BEL3:37:475:10 11.6314M50214GENT
205.420920CLAES Rob40BEL3:37:515:10 11.6240M40215SCHAFFEN-DIEST
206.420235DE SUTTER Jonathan25BEL3:37:555:10 11.6280SEH216ROESELARE
207.420079BAEYENS Jo46BEL3:37:585:10 11.6229M45218AALST
208.420723DUFOUR Bart45BEL3:38:075:11 11.6130M45219LUMMEN
209.420650VANDEVELDE Mathias30BEL3:38:125:11 11.6081SEH220SINT-LAUREINS
210.420798GOETRY Frederic45BEL3:38:135:11 11.6031M45221GENT
211.420180DAUGE Christophe41BEL3:38:185:11 11.6041M40222ATH
212.420844COCQUEREAUX Erik45BEL3:38:295:11 11.5932M45223SINT-GENESIUS-RODE
213.420579VAN DE VYVER Peter52BEL3:38:305:11 11.5915M50224OUWEGEM
214.420629VAN SEVEREN Wim43BEL3:38:375:11 11.5842M40225HERDERSEM
215.420846DELEU John50BEL3:39:175:12 11.5516M50226WEVELGEM
216.420987RONSMANS MichelBEL3:39:315:13 11.53-227MEISE
217.420371JACOB Jonas35BEL3:39:505:13 11.5240M35228GENT
218.420360HEYNDRICKX Michael36BEL3:40:045:13 11.5041M35229SINAAI
219.420130BROKKE Emanuel46NLD3:40:115:14 11.5033M45230APELDOORN
220.420217DE PAGIE Jasper32BEL3:40:195:14 11.4982SEH231SINT-NIKLAAS
221.420122BOTERDAELE Jeroen29BEL3:40:475:14 11.4783SEH234BASSEVELDE
222.420581VAN DEN BERG Gertjan38NLD3:40:535:15 11.4642M35235DEN BOSCH
223.420540SWINNEN Tim36BEL3:40:535:15 11.4643M35236LEUVEN
224.420507SCHEPERS Tom24BEL3:41:095:15 11.4584SEH237AALST
225.420328GEIREGAT Nico46BEL3:41:115:15 11.4534M45238OUDENAARDE
226.420755DE VUYST Lieven42BEL3:41:145:15 11.4443M40239LEDE
227.420537SULLY Keith42GBR3:41:155:15 11.4444M40240GERRARDS CROSS
228.420494RIGOUTS Vincent34BEL3:41:175:15 11.4485SEH241MORKHOVEN
229.420597VAN DONGEN Daan23BEL3:41:285:15 11.4386SEH243OUDERGEM
230.420133BRUYNEEL Tobias34BEL3:41:295:15 11.4387SEH244MARIAKERKE
231.420154CLAEYS Bart33BEL3:41:395:16 11.4288SEH245TIELT
232.420481PRIEM Danny56BEL3:41:405:16 11.425M55246OOSTROZEBEKE
233.420342GOOSSENS Jonas23BEL3:41:415:16 11.4289SEH247OVERIJSE
234.420570VAN DE GRAAF Thijs36BEL3:42:025:16 11.4044M35248GENT
235.420559VAESSEN Alain49BEL3:42:115:16 11.3935M45250TINLOT
236.420280DESLOOVER Joachim34BEL3:42:165:17 11.3990SEH251LOCHRISTI
237.420432MICHIELS Chris57BEL3:42:195:17 11.396M55253LEUVEN
238.420204DE GEETER Piet43BEL3:42:255:17 11.3845M40254ZOTTEGEM
239.420138BUYSE Erwin43BEL3:42:295:17 11.3846M40255HARELBEKE
240.420572VAN DE PUTTE Fréderic29BEL3:42:375:17 11.3791SEH256MELLE
241.420069ALLINGHAM Matthew37GBR3:42:375:17 11.3745M35257PETERBOROUGH
242.420375JANSEN Tim50NLD3:42:395:17 11.3717M50258HAARLEM
243.420817VAN LIMBERGEN Kris40BEL3:42:395:17 11.3747M40259DENDERMONDE
244.420194DE BUCK Ruben28BEL3:42:405:17 11.3792SEH260LEDEBERG
245.420047VAN LOO Sven31BEL3:42:405:17 11.3793SEH261GENTBRUGGE
246.420769BROUCKE Ivo33BEL3:42:475:17 11.3694SEH262
247.420514SCHOOFD Ronald44BEL3:42:485:17 11.3648M40263NIJLEN
248.420263DELOMBAERDE Jochen31BEL3:42:525:17 11.3695SEH264LEDEBERG
249.420554TRUWANT Pieter28BEL3:42:575:18 11.3696SEH265ROESELARE
250.420192DE BRUYN Geert48BEL3:43:025:18 11.3536M45266ROESELARE
251.420617VAN LEEUWEN Jochem36NLD3:43:055:18 11.3546M35267KAMPEN
252.420841LEFORESTIER Clement22BEL3:43:085:18 11.3597SEH270SOMMERY
253.420338GOEMAN Jan30BEL3:43:165:18 11.3498SEH271IMPE
254.420527SMEERS Gerben26BEL3:43:185:18 11.3499SEH272MAASMECHELEN
255.420472PIETERS Vincent31BEL3:43:205:18 11.34100SEH273BRUSSEL
256.420171COUTTEAU Ruben42BEL3:43:315:18 11.3349M40274LAARNE
257.420535STAESSENS Luc55BEL3:43:345:18 11.327M55276BISSEGEM
258.420974MONBAILLEU Filip49BEL3:43:365:18 11.3237M45277WINGENE
259.420292DHAENENS Tuur25BEL3:43:365:18 11.32101SEH278KORTRIJK
260.420392LAVERGE Dieter35BEL3:43:395:19 11.3247M35279SINT DENIJS
261.420312FOLEY John37IRL3:43:425:19 11.3248M35280ATHY
262.420378KERRE Piet33BEL3:43:435:19 11.32102SEH281SINAAI-WAAS
263.420750TANGHE Simon28BEL3:43:515:19 11.31103SEH282MERENDREE
264.420252DEBYSER Arnout25BEL3:43:525:19 11.31104SEH283DE PINTE
265.420809VAN OPSTAL Filip42BEL3:43:575:19 11.3150M40284SINT-AMANDSBERG
266.420063DE DECKER Peter43BEL3:43:585:19 11.3051M40285MALDEGEM
267.420606VAN GERVEN Henk62NLD3:44:005:19 11.301M60286OOST WEST EN MIDDELBEERS
268.420657VANHOVE Jelle27BEL3:44:095:19 11.29105SEH287TIENEN
269.420682VERMAERKE Frank52BEL3:44:135:19 11.2918M50288GENT
270.420667VERDONCK Steven42BEL3:44:255:20 11.2852M40290ZVERGEM
271.420058MATTHEEUWS Michiel23BEL3:44:305:20 11.28106SEH291URSEL
272.420804DAVID Mitch33BEL3:44:335:20 11.27107SEH292WEVELGEM
273.420076AZPARREN Iñaki54ESP3:44:475:20 11.2619M50293PAMPLONA
274.420654VANHEE Kobe42BEL3:45:065:21 11.2553M40295DEINZE
275.420095BEHAEGHE Bart62BEL3:45:125:21 11.242M60297OUDENAARDE
276.420625VAN RUMST Joris37BEL3:45:145:21 11.2449M35298DAKNAM
277.420736VANDERDONCKT Stijn44BEL3:45:195:21 11.2454M40299LOCHRISTI
278.420354HANSSENS Jürgen28BEL3:45:315:21 11.23108SEH300PERVIJZE
279.420056TEMBUYSER Laurens27BEL3:45:465:22 11.21109SEH301GENT
280.420716ZUTTERMAN Donald64BEL3:45:525:22 11.213M60302DRONGEN
281.420131BRUTEYN Robin19BEL3:45:565:22 11.21110SEH303NAZARETH
282.420525SIMONS Niels30BEL3:46:005:22 11.20111SEH305BOOM
283.420145CARPRIAU Nico49BEL3:46:085:22 11.2038M45308DEURNE
284.420683VERMEIL Yves57FRA3:46:085:22 11.208M55309EMMERIN
285.420273DEPUYDT Kenneth38BEL3:46:135:22 11.1950M35310SINT-AMANDSBERG
286.420990DE HAES Diederik55BEL3:46:335:23 11.189M55311RUISBROEK PUURS
287.420211DE MITS Tim21BEL3:46:395:23 11.17112SEH313EVERGEM
288.420391LAUREYNS Jente21BEL3:46:405:23 11.17113SEH314EVERGEM
289.420513SCHOOF Frank48BEL3:46:445:23 11.1739M45315DESTELBERGEN
290.420983STYNEN Koen37BEL3:46:455:23 11.1751M35316GEEL
291.420316FREDERIC Kobis41FRA3:46:465:23 11.1655M40317TROISFONTAINES
292.420453NOTEBAERT Ortwin42BEL3:46:575:23 11.1656M40318HOEILAART
293.420451NEYT Nick31BEL3:47:055:23 11.15114SEH320ZELZATE
294.420223DE RIECK Arne27BEL3:47:155:24 11.14115SEH321MERELBEKE
295.420098BERGHOEF Jaro39NLD3:47:195:24 11.1452M35322KUDELSTAART
296.420762VAN DER BURGHT Bob49BEL3:47:265:24 11.1340M45323GENT
297.420607VAN HABBERNEY Vincent37BEL3:47:275:24 11.1353M35324BERCHEM
298.420522SEWALT Arne43NLD3:47:435:24 11.1257M40325AMSTERDAM
299.420476PLOVYT Patrick56BEL3:48:225:25 11.0910M55326WAARSCHOOT
300.420676VERHAMME Kevin37BEL3:48:225:25 11.0954M35327ROESELARE
301.420035MICHIELS Joran29BEL3:48:415:26 11.07116SEH328GENT
302.420395LENSSEN Frederik32BEL3:48:445:26 11.07117SEH329SINT-NIKLAAS
303.420315FRACAS Damien36FRA3:48:465:26 11.0755M35330WASQUEHAL
304.420971VERHAEGHE Kris47BEL3:48:535:26 11.0641M45331TORHOUT
305.420115BOCKAERT Koen38BEL3:48:535:26 11.0656M35332KNESSELARE
306.420777DE BOODT Sebatiaan48BEL3:48:575:26 11.0642M45333LOCHRISTI
307.420808DEPUYDT Henk48BEL3:49:275:27 11.0343M45335EYGUIÈRES
308.420743DE WULF Luc64BEL3:49:315:27 11.034M60337GOZÉE
309.420184DE BART Jeroen34BEL3:49:445:27 11.02118SEH338GENT
310.420549THISSEN Edwin49NLD3:49:445:27 11.0244M45339SWALMEN
311.420757DE MUNCK Tim42BEL3:49:525:27 11.0158M40340GENTBRUGGE
312.420561VAN ASSCHE Andreas27BEL3:50:415:29 10.97119SEH342HEVERLEE
313.420464PAULUS Gert-Jan24BEL3:50:435:29 10.97120SEH344LEUVEN
314.420687VERSCHEURE Bart47BEL3:51:115:29 10.9545M45346MALDEGEM
315.420756DE VOS Maarten37BEL3:51:315:30 10.9457M35347SINT-ANDRIES
316.420729PLOVYT Pascal57BEL3:51:345:30 10.9311M55348GENT
317.420510SCHOENMAEKERS Ruben29BEL3:51:355:30 10.93121SEH349GENT
318.420619VAN LOO Peter44BEL3:51:455:30 10.9259M40350GENT
319.420382KOOPMAN Dirk57BEL3:51:555:30 10.9212M55351WERVIK
320.420332GHESQUIERE Franky48BEL3:51:555:30 10.9246M45352WERVIK
321.420593VAN DER MEULEN Marco49BEL3:52:085:31 10.9147M45353WICHELEN
322.420387LANGBEEN Hugo50BEL3:52:105:31 10.9120M50354DENDERMONDE
323.420203DE COUSSEMAEKER Mario45BEL3:52:295:31 10.8948M45355KAPRIJKE
324.420113BLANCQUAERT Gerrit45BEL3:52:355:31 10.8949M45356BERLARE
325.420812SAEZ PLAZA Victor57ESP3:52:595:32 10.8713M55358MADRID
326.420568VAN DAMME Nick36BEL3:53:245:32 10.8558M35361WIEZE
327.420224DE RIJCKE Kurt48BEL3:53:305:33 10.8450M45362SINT-LAMBRECHTS-WOLUWE
328.420177D´HOKER Joris39BEL3:53:325:33 10.8459M35363HERZELE
329.420172COVENS Kris38BEL3:53:375:33 10.8460M35364HOFSTADE
330.420027CNUDDE Danny51BEL3:53:405:33 10.8421M50365GENT
331.420582VAN DEN BERGHE Jeremi34BEL3:53:435:33 10.83122SEH367BERCHEM
332.420041VAN PARYS Wouter42BEL3:53:535:33 10.8360M40369GENT
333.420803EKER Tim36BEL3:54:065:33 10.8161M35371PETIT-ENGHIEN
334.420796VANDEWALLE Kristof39BEL3:54:095:33 10.8162M35372MARIAKERKE
335.420504SAVAT Bregt34BEL3:54:165:34 10.81123SEH373DRONGEN
336.420478POELAERT Pieterjan30BEL3:54:185:34 10.81124SEH374GENT
337.420381KOOIJMAN Wilfred55NLD3:54:225:34 10.8014M55375KROMMENIE
338.420484RAEPSAET Wim39BEL3:54:235:34 10.8063M35376MARIAKERKE
339.420923VAN BAELEN Rob51BEL3:54:255:34 10.8022M50377BRASSCHAAT
340.420772CARLIER Wolfram34BEL3:54:285:34 10.80125SEH378GENT
341.420040VAN LOY Jan39BEL3:54:335:34 10.7964M35380GENT
342.420740DE MESEL Filip31BEL3:54:355:34 10.79126SEH381LEDE
343.420991OLGERS Olivier23NLD3:54:375:34 10.79127SEH382WAGENINGEN
344.420552TOUSSAINT Xavier39BEL3:54:475:34 10.7865M35383ANDERLUES
345.420977LERNOUT Jurgen52BEL3:55:145:35 10.7623M50384OVERSLAG
346.420064AANDEWIEL Dave46NLD3:55:295:35 10.7551M45385TILBURG
347.420275DERORE Dominiek42BEL3:55:375:36 10.7561M40386ZWEVEGEM
348.420482PYNAERT Jordy20BEL3:55:405:36 10.74128SEH387DRONGEN
349.420805KUYPERS Edouard65BEL3:55:445:36 10.741M65388LOUVAIN-LA-NEUVE
350.420157CLAUS Kenneth48BEL3:55:505:36 10.7452M45389ZWIJNAARDE
351.420714WITPAS Ken41BEL3:55:525:36 10.7362M40390MECHELEN
352.420036RAES Marc58BEL3:55:565:36 10.7315M55391GENT
353.420161CORDY Stefaan46BEL3:56:045:36 10.7253M45392GENTBRUGGE
354.420591VAN DER LOUW Dick55NLD3:56:155:36 10.7216M55393BLOKKER
355.420701WELLENS Leo61BEL3:56:245:37 10.715M60395REKEM
356.420103BERTRAND Martin26BEL3:56:365:37 10.70129SEH397ARLON
357.420179DAEMS Tim30BEL3:56:445:37 10.69130SEH398VEERLE
358.420511SCHOLAERT Frederik41BEL3:56:445:37 10.6963M40399GENTBRUGGE
359.420293DHONDT Pieter25BEL3:56:495:37 10.69131SEH400GENT
360.420512SCHOLS Christof26BEL3:56:505:37 10.69132SEH401DILSEN-STOKKEM
361.420104BERTRAND Rochette27BEL3:57:015:38 10.68133SEH403ELSENE
362.420324GEBOERS Hugo65BEL3:57:065:38 10.682M65404OUD-TURNHOUT
363.420618VAN LEEUWEN Michel42NLD3:57:095:38 10.6864M40405´S-GRAVENHAGE
364.420087BARRAN Leo46GBR3:57:105:38 10.6754M45406LONDON
365.420062VAN GRAFHORST Alex47BEL3:57:185:38 10.6755M45408LOVENDEGEM
366.420575VAN DE VELDE Koen40BEL3:57:245:38 10.6665M40409WONDELGEM
367.420022ARDINOIS Pieter43BEL3:57:255:38 10.6666M40410GENT
368.420425MEERSSEMAN Thomas35BEL3:57:295:38 10.6666M35411DE PINTE
369.420487REHWINKEL Jan42GBR3:57:305:38 10.6667M40412OXFORD
370.420645VANDENBROUCKE Ben39BEL3:57:385:38 10.6567M35413ANZEGEM
371.420107BEYLD Davy37BEL3:57:385:38 10.6568M35414VICHTE
372.420528SMETS Jerry43BEL3:57:435:39 10.6568M40415DUFFEL
373.420267DEMUYNCK Kobe49BEL3:57:465:39 10.6556M45416GENT
374.420795KLEINVELD Bobby34NLD3:57:535:39 10.64134SEH417LAREN
375.420730VAN DEN EECKHOUT Arne24BEL3:57:575:39 10.64135SEH418ERPE-MERE
376.420117BOETE Rien29BEL3:58:035:39 10.64136SEH419GENT
377.420077BAATS Lieven47BEL3:58:105:39 10.6357M45420EEKLO
378.420640VANDEKERCKHOVE Dirk60BEL3:58:135:39 10.636M60422IEPER
379.420922VERHOEVEN Frank57BEL3:58:185:39 10.6217M55423DILBEEK
380.420239DE VLAMINCK Kristof33BEL3:58:205:39 10.62137SEH424GERAARDSBERGEN
381.420437MOENS Yves42BEL3:58:385:40 10.6169M40426WAARSCHOOT
382.420551TONNARD Amaury26BEL3:58:415:40 10.61138SEH427MELLE
383.420677VERHEECKE Sam38BEL3:58:535:40 10.6069M35431LANDEGEM
384.420463PASCAL Van Den Eede47BEL3:58:565:40 10.6058M45432KALKEN
385.420348GUELINCKX Ludo58BEL3:58:575:40 10.6018M55433KESSEL LO
386.420025BRYS Dimitri53BEL3:59:065:40 10.5924M50434GENT
387.421151VANDEWIELE Bart41BEL3:59:075:41 10.5970M40435DRONGEN
388.420758VAN ACKER Stefan49BEL3:59:095:41 10.5959M45436MARIAKERKE
389.420165COSYNS Wim47BEL3:59:115:41 10.5960M45437MARIAKERKE
390.420028COLMAN Dieter43BEL3:59:135:41 10.5871M40438GENT
391.420725GERT Van Melkebeke45BEL3:59:145:41 10.5861M45439TERNAT
392.420873DUCHATEAU Rene51BEL3:59:155:41 10.5825M50440BINKOM
393.420794VANHAUWAERT Dimitri42BEL3:59:155:41 10.5872M40441ZONNEBEKE
394.420258DEKLERCK Jeroen32BEL3:59:165:41 10.58139SEH442TORHOUT
395.420247DE WULF Steven28BEL3:59:165:41 10.58140SEH443AALTER
396.420174CROMHEECKE David42BEL3:59:415:41 10.5673M40444OOSTAKKER
397.420430METELMANN Philippe52BEL3:59:555:42 10.5526M50447DEINZE
398.420199DE CONINCK Pieter35BEL4:00:175:42 10.5470M35448MERELBEKE
399.420770VAN EYCK Guy51BEL4:00:205:42 10.5327M50449BRUSSEL
400.420310FEYAERTS Koen37BEL4:00:475:43 10.5271M35450GENTBRUGGE
401.420288DEVRIESE Benny39BEL4:01:055:43 10.5072M35451ANZEGEM
402.420134BUNTINX Bart46BEL4:01:075:43 10.5062M45452DESTELBERGEN
403.420266DEMUNTER Dieter38BEL4:01:315:44 10.4873M35454MARIAKERKE
404.420283DESOMVIELE Lieven40BEL4:01:375:44 10.4874M40455LEDEBERG
405.420604VAN GASSE Mario47BEL4:01:475:44 10.4763M45456TEMSE
406.420345GRIFFIOEN Cor32BEL4:01:525:44 10.47141SEH457GENT
407.420421MARKEY Christophe52BEL4:02:075:45 10.4628M50458KORTRIJK
408.420524SHERIDAN Filip39BEL4:02:115:45 10.4574M35459SINT-AMANDSBERG
409.420577VAN DE VOORDE Wim52BEL4:02:265:45 10.4429M50460BASSEVELDE
410.420264DELOMBAERDE Jonathan25BEL4:02:345:45 10.44142SEH461HARELBEKE
411.420351HAECK Sander24BEL4:02:355:45 10.44143SEH462WAARSCHOOT
412.420848DALATAS Mehmet Oguzhan45BEL4:02:435:46 10.4364M45463CHARLEROI
413.420386LANCKMANS Jonas22BEL4:03:145:46 10.41144SEH465GRIMBERGEN
414.420469PERSYN Carlo26BEL4:03:295:47 10.40145SEH466DE PINTE
415.420709WILLEMS Wim48BEL4:03:295:47 10.4065M45467BASSEVELDE
416.420388LANGFORD Graham49GBR4:03:375:47 10.3966M45468COLCHESTER
417.420751LANSSENS Tom38BEL4:03:585:47 10.3875M35469KLUISBERGEN
418.420443MUR Raul58GBR4:03:595:47 10.3819M55470WIRRAL
419.420697WARNER Michael33BEL4:04:085:48 10.37146SEH472GENT
420.420628VAN SCHOOTEN Kenneth51NLD4:04:115:48 10.3730M50473VOORHOUT
421.420712WINDELS Luk46BEL4:04:115:48 10.3767M45474KALKEN
422.420219DE REVIERE Arno24BEL4:04:305:48 10.35147SEH475GENT
423.420562VAN AVERMAET Stefan34BEL4:04:335:48 10.35148SEH476ZELE
424.420636VANDE VELDE Dirk55BEL4:04:345:48 10.3520M55477EVERGEM
425.420631VAN WYNSBERGE Luc46BEL4:04:385:48 10.3568M45478BASSEVELDE
426.420349GUILLEMYN Niels28BEL4:04:465:49 10.34149SEH479VICHTE
427.420307ETIEN Christophe43BEL4:04:515:49 10.3475M40481GREZ-DOICEAU
428.420503SAUREN Jeffrey28BEL4:04:555:49 10.34150SEH482HALEN
429.420296DOLPHENS Sander26BEL4:05:065:49 10.33151SEH484MERELBEKE
430.420147CATHELYN Lesly50BEL4:05:325:50 10.3131M50485MERELBEKE
431.420975DE VUYST David45BEL4:05:325:50 10.3169M45486GRIMBERGEN
432.420742KOUSSONSKY Alex54BEL4:05:485:50 10.3032M50487ARC-AINIÈRES
433.420278DESCHEEMAECKER Tijl42BEL4:06:005:50 10.2976M40489GENT
434.420320GARCEZ Guivario27BEL4:06:075:50 10.29152SEH490SINT-AMANDSBERG
435.420364HORICX Sven40BEL4:06:195:51 10.2877M40492OPWIJK
436.420608VAN HEMELRIJCK Peter40BEL4:06:235:51 10.2878M40493SINT-AMANDSBERG
437.420771SCHELSTRAETE Nico0BEL4:06:265:51 10.27-495ADEEM
438.420436MOENS Joachim35BEL4:06:365:51 10.2776M35496GREMBERGEN
439.420788VAN LOO Christophe42BEL4:06:435:51 10.2679M40497GENT
440.420877SOLEMÉ Tim23BEL4:06:505:51 10.26153SEH498DESTELBERGEN
441.420045VERELLEN Bart43BEL4:07:225:52 10.2480M40500GENT
442.420672VERGEYLEN Sven22BEL4:07:235:52 10.23154SEH501ZELE
443.420480POUBLON Gino54BEL4:07:265:52 10.2333M50502HARELBEKE
444.420031FOURNEAU Manu24BEL4:07:265:52 10.23155SEH503GENT
445.420592VAN DER MEULEN Chris47BEL4:07:475:53 10.2270M45504ROOSDAAL
446.420286DEVOS Guillaume38FRA4:07:495:53 10.2277M35505LOMME
447.420691VONCK Jeroen35BEL4:08:195:54 10.2078M35507MERELBEKE
448.420116BOERI Domenico Luca47ITA4:08:305:54 10.1971M45508ALASSIO
449.420006LEENKNECHT Pieter-Jan34BEL4:08:595:55 10.17156SEH511HUISE
450.420616VAN LEEUWE Ken38BEL4:09:285:55 10.1579M35514OOSTAKKER
451.420326GEERS Frank53BEL4:10:025:56 10.1334M50516GENT
452.420806SIROYT André63BEL4:10:195:56 10.117M60517WELLE
453.420369IMMESOETE Gijsbert38BEL4:10:315:57 10.1180M35519OOSTEEKLO
454.420088BASSIER Maarten28BEL4:10:315:57 10.11157SEH520GENT
455.420196DE CEUKELAIRE Wim51BEL4:10:485:57 10.0935M50521BRUSSEL
456.420208DE KENNE Kjell31BEL4:11:095:58 10.08158SEH522KAPRIJKE
457.420831SEURINCK Dieter49BEL4:11:175:58 10.0872M45523ROESELARE
458.420370IRIGOYEN Javier47ESP4:11:215:58 10.0773M45524PAMPLONA
459.420768VAN DOORSLAER Lieven42BEL4:11:595:59 10.0581M40525LANDSKOUTER
460.420542TALPAERT Anthony41BEL4:12:105:59 10.0482M40526BLANDAIN
461.420509SCHLÖGLHOFER Günter54AUT4:12:125:59 10.0436M50527STEYR
462.420403LIVIAU Emmanuel53BEL4:12:265:59 10.0337M50528SOIGNIES
463.420109BEYLS Seppe34BEL4:12:376:00 10.02159SEH529WEVELGEM
464.420556TRUYAERT Dieter35BEL4:12:386:00 10.0281M35530HEULE
465.420972ENGELS Marc53BEL4:12:426:00 10.0238M50531NIEUWENRODE
466.420791HAJAJI Laurent38BEL4:12:446:00 10.0282M35532ANZEGEM
467.420075ASSELBERGHS-THEEWIS Olivier40BEL4:12:446:00 10.0283M40533KAMPENHOUT
468.420231DE SMET Geert42BEL4:13:036:00 10.0084M40535EVERGEM
469.420473PIETTE Michel49BEL4:13:126:01 10.0074M45537WAIMES
470.420548THEVELIN Wim43BEL4:13:216:01 9.9985M40539BAVIKHOVE
471.420594VAN DER MIJNSBRUGGE Krist63BEL4:13:296:01 9.998M60540ZANDBERGEN
472.420106BERVOETS Jurgen39BEL4:13:316:01 9.9983M35541BLANKENBERGE
473.420383KURT Liephout53BEL4:13:376:01 9.9839M50542DRONGEN
474.420744JACOBS Jef59BEL4:13:386:01 9.9821M55543MEERSEL-DREEF
475.420236DE TANT Jannick42BEL4:13:396:01 9.9886M40544OUTER
476.420485RAMAN Jürgen34BEL4:13:406:01 9.98160SEH545SLEIDINGE
477.420212DE MOL Randy50BEL4:13:456:01 9.9840M50547WAASMUNSTER
478.420689RENE Christ51NLD4:13:456:01 9.9841M50548RG DEN HAAG
479.420843VANDEWOESTYNE Bart41BEL4:13:476:01 9.9887M40549KORTRIJK
480.420323GAZZANO Raffaele41BEL4:13:496:01 9.9888M40550DE PINTE
481.420449NELISSEN Niko44BEL4:13:516:01 9.9789M40552LOCHRISTI
482.420068ALLEWEIRELDT Ken47BEL4:14:096:02 9.9675M45553DRONGEN
483.420664VENNEMAN Jan27BEL4:14:136:02 9.96161SEH554LANDEGEM
484.420454NOTTE Kurt60BEL4:14:136:02 9.969M60556OOSTAKKER
485.420060DEVLOO Wim47BEL4:14:156:02 9.9676M45557SCHELDEWINDEKE
486.420034LANGERAERT Matto46BEL4:14:216:02 9.9577M45558GENT
487.420050LYSSENS Jurgen40BEL4:14:296:02 9.9590M40559DESTELBERGEN
488.420072ANSARI Irfan25BEL4:15:166:03 9.92162SEH565GENT
489.420793VANHAUWAERT Frederic41BEL4:15:176:03 9.9291M40566GENT
490.420259DEL POZO PONCE Marcelo55BRA4:15:296:04 9.9122M55567SALVADOR
491.420685VERRELST Stein33BEL4:15:416:04 9.90163SEH568BEVEL
492.420717VAN ACKER Freddy55BEL4:16:136:05 9.8823M55570EVERGEM
493.420693VRANKEN Stijn30BEL4:16:456:06 9.86164SEH571MENEN
494.420786KRZYSZTOF Boczek53POL4:16:476:06 9.8642M50572WODZISLAW SLASKI
495.420737VAN NOTEN Axel47BEL4:17:036:06 9.8578M45573ANTWERPEN
496.420719FONCKE Tony52BEL4:17:246:06 9.8443M50574LOCHRISTI
497.420221DE RIDDER Patrick60BEL4:17:596:07 9.8110M60575WILLEBROEK
DNF: abandon; DSQ: disqualifié; Vitesse en km/h
Page: [1] 2